CheckWX is a tool to help pilots better visualize weather data.  It is not intended as a substitute for an official pre-flight weather briefing.

16:16:10 UTC

EPKK TAF
John Paul II International Kraków-Balice Airport
Kraków, Poland
TAF EPKK 281730Z 2818/2918 34010KT 9999 FEW060 TEMPO 2818/2820 VRB15G25KT 4000 SHRA BKN035CB BECMG 2900/2903 BKN013 BECMG 2906/2908 SCT025 PROB40 TEMPO 2906/2910 SHRA BKN017CB TEMPO 2908/2916 36015G26KT

May-28@
18:00 UTC

May-28 @ 18:00 UTC

May-29@
00:00 UTC

May-29 @ 00:00 UTC

TAF EPKK 281730Z 2818/2918 34010KT 9999 FEW060

Expired

Wind
  • 340° at 10 KTS
Cloud Levels
  • Few at 6,000' AGL

May-28@
18:00 UTC

May-28 @ 18:00 UTC

May-28@
20:00 UTC

May-28 @ 20:00 UTC

TEMPO 2818/2820 VRB15G25KT 4000 SHRA BKN035CB

Expired

Wind
  • Variable at 15 KTS
  • {Gusting to 25 KTS
Conditions
Showers, Rain
Cloud Levels
  • Broken at 3,500' AGL

May-29@
00:00 UTC

May-29 @ 00:00 UTC

May-29@
06:00 UTC

May-29 @ 06:00 UTC

BECMG 2900/2903 BKN013

Expired

Wind
  • 340° at 10 KTS
Cloud Levels
  • Broken at 1,300' AGL

May-29@
06:00 UTC

May-29 @ 06:00 UTC

May-29@
10:00 UTC

May-29 @ 10:00 UTC

PROB40 TEMPO 2906/2910 SHRA BKN017CB

Expired

Conditions
Showers, Rain
Cloud Levels
  • Broken at 1,700' AGL

May-29@
06:00 UTC

May-29 @ 06:00 UTC

May-29@
18:00 UTC

May-29 @ 18:00 UTC

BECMG 2906/2908 SCT025

Becoming

Becoming Conditions expected by Fri, May 29, 2020 @ 08:00 UTC

Wind
  • 340° at 10 KTS
Cloud Levels
  • Scattered at 2,500' AGL

May-29@
08:00 UTC

May-29 @ 08:00 UTC

May-29@
16:00 UTC

May-29 @ 16:00 UTC

TEMPO 2908/2916 36015G26KT

Expired

Wind
  • 360° at 15 KTS
  • {Gusting to 26 KTS
Cloud Levels